sensor_id;sensor_type;location;lat;lon;timestamp;pressure;altitude;pressure_sealevel;temperature;humidity
83718;BME280;73701;52.234;21.288;2023-12-29T00:01:46;100190.63;;;2.99;89.14
83718;BME280;73701;52.234;21.288;2023-12-29T00:04:11;100179.56;;;2.95;89.11
83718;BME280;73701;52.234;21.288;2023-12-29T00:06:38;100197.34;;;3.09;89.02
83718;BME280;73701;52.234;21.288;2023-12-29T00:09:04;100188.81;;;3.08;88.48
83718;BME280;73701;52.234;21.288;2023-12-29T00:11:29;100195.66;;;3.06;88.63
83718;BME280;73701;52.234;21.288;2023-12-29T00:13:54;100192.25;;;3.06;89.39
83718;BME280;73701;52.234;21.288;2023-12-29T00:16:20;100190.59;;;3.00;89.23
83718;BME280;73701;52.234;21.288;2023-12-29T00:18:45;100185.53;;;2.94;89.11
83718;BME280;73701;52.234;21.288;2023-12-29T00:21:11;100185.44;;;3.03;89.08
83718;BME280;73701;52.234;21.288;2023-12-29T00:23:36;100165.81;;;3.01;88.96
83718;BME280;73701;52.234;21.288;2023-12-29T00:26:01;100183.59;;;3.16;89.10
83718;BME280;73701;52.234;21.288;2023-12-29T00:28:27;100171.69;;;3.09;88.69
83718;BME280;73701;52.234;21.288;2023-12-29T00:30:52;100176.78;;;3.12;88.98
83718;BME280;73701;52.234;21.288;2023-12-29T00:33:17;100193.84;;;3.19;89.03
83718;BME280;73701;52.234;21.288;2023-12-29T00:35:43;100118.19;;;2.72;89.32
83718;BME280;73701;52.234;21.288;2023-12-29T00:38:08;100105.38;;;2.70;88.72
83718;BME280;73701;52.234;21.288;2023-12-29T00:40:33;100181.03;;;3.16;89.13
83718;BME280;73701;52.234;21.288;2023-12-29T00:43:02;100115.63;;;2.72;88.94
83718;BME280;73701;52.234;21.288;2023-12-29T00:45:28;100167.47;;;3.03;88.85
83718;BME280;73701;52.234;21.288;2023-12-29T00:48:01;100056.16;;;2.34;88.86
83718;BME280;73701;52.234;21.288;2023-12-29T00:50:27;100198.22;;;3.11;89.38
83718;BME280;73701;52.234;21.288;2023-12-29T00:52:52;100189.72;;;3.03;88.91
83718;BME280;73701;52.234;21.288;2023-12-29T00:55:17;100186.25;;;3.10;88.71
83718;BME280;73701;52.234;21.288;2023-12-29T00:57:43;100193.13;;;3.08;89.03
83718;BME280;73701;52.234;21.288;2023-12-29T01:00:11;100200.81;;;3.06;89.13
83718;BME280;73701;52.234;21.288;2023-12-29T01:02:37;100144.72;;;2.71;89.19
83718;BME280;73701;52.234;21.288;2023-12-29T01:05:03;100180.34;;;2.99;89.11
83718;BME280;73701;52.234;21.288;2023-12-29T01:07:28;100191.47;;;3.02;88.77
83718;BME280;73701;52.234;21.288;2023-12-29T01:09:54;100007.00;;;1.90;89.13
83718;BME280;73701;52.234;21.288;2023-12-29T01:12:19;100187.25;;;2.97;88.52
83718;BME280;73701;52.234;21.288;2023-12-29T01:14:45;100181.25;;;2.94;89.15
83718;BME280;73701;52.234;21.288;2023-12-29T01:17:10;100179.56;;;2.92;89.49
83718;BME280;73701;52.234;21.288;2023-12-29T01:19:35;100183.88;;;2.90;89.31
83718;BME280;73701;52.234;21.288;2023-12-29T01:22:01;100173.59;;;2.90;89.45
83718;BME280;73701;52.234;21.288;2023-12-29T01:24:26;100171.13;;;2.82;89.15
83718;BME280;73701;52.234;21.288;2023-12-29T01:26:51;100134.56;;;2.58;89.56
83718;BME280;73701;52.234;21.288;2023-12-29T01:29:17;100160.97;;;2.68;89.75
83718;BME280;73701;52.234;21.288;2023-12-29T01:31:42;100160.13;;;2.66;90.12
83718;BME280;73701;52.234;21.288;2023-12-29T01:34:07;100170.38;;;2.71;89.32
83718;BME280;73701;52.234;21.288;2023-12-29T01:36:33;100157.53;;;2.69;89.48
83718;BME280;73701;52.234;21.288;2023-12-29T01:38:58;100162.69;;;2.66;89.84
83718;BME280;73701;52.234;21.288;2023-12-29T01:41:24;100164.44;;;2.63;90.07
83718;BME280;73701;52.234;21.288;2023-12-29T01:46:30;100137.25;;;2.43;89.72
83718;BME280;73701;52.234;21.288;2023-12-29T01:48:57;100116.75;;;2.41;89.89
83718;BME280;73701;52.234;21.288;2023-12-29T01:51:25;100018.25;;;1.72;89.94
83718;BME280;73701;52.234;21.288;2023-12-29T01:53:55;100135.50;;;2.50;90.35
83718;BME280;73701;52.234;21.288;2023-12-29T01:56:22;100099.78;;;2.31;90.66
83718;BME280;73701;52.234;21.288;2023-12-29T01:58:51;100126.94;;;2.49;90.21
83718;BME280;73701;52.234;21.288;2023-12-29T02:01:19;100122.69;;;2.48;89.84
83718;BME280;73701;52.234;21.288;2023-12-29T02:03:45;100077.66;;;2.18;90.34
83718;BME280;73701;52.234;21.288;2023-12-29T02:06:12;100104.81;;;2.40;89.80
83718;BME280;73701;52.234;21.288;2023-12-29T02:08:38;100110.75;;;2.44;90.52
83718;BME280;73701;52.234;21.288;2023-12-29T02:11:07;100105.63;;;2.46;89.86
83718;BME280;73701;52.234;21.288;2023-12-29T02:13:32;100099.63;;;2.45;89.58
83718;BME280;73701;52.234;21.288;2023-12-29T02:16:23;100097.94;;;2.46;90.53
83718;BME280;73701;52.234;21.288;2023-12-29T02:18:54;100091.91;;;2.50;89.93
83718;BME280;73701;52.234;21.288;2023-12-29T02:21:25;100018.81;;;2.07;89.75
83718;BME280;73701;52.234;21.288;2023-12-29T02:23:51;100060.50;;;2.26;90.42
83718;BME280;73701;52.234;21.288;2023-12-29T02:26:18;100088.56;;;2.41;90.01
83718;BME280;73701;52.234;21.288;2023-12-29T02:28:52;100073.28;;;2.31;90.70
83718;BME280;73701;52.234;21.288;2023-12-29T02:31:24;100074.13;;;2.31;89.75
83718;BME280;73701;52.234;21.288;2023-12-29T02:33:52;100082.63;;;2.36;90.11
83718;BME280;73701;52.234;21.288;2023-12-29T02:36:18;100075.84;;;2.31;90.30
83718;BME280;73701;52.234;21.288;2023-12-29T02:38:44;100074.19;;;2.22;90.56
83718;BME280;73701;52.234;21.288;2023-12-29T02:41:10;100081.84;;;2.25;91.03
83718;BME280;73701;52.234;21.288;2023-12-29T02:43:38;100077.66;;;2.21;90.94
83718;BME280;73701;52.234;21.288;2023-12-29T02:46:03;100067.38;;;2.19;90.85
83718;BME280;73701;52.234;21.288;2023-12-29T02:48:28;100068.31;;;2.15;90.69
83718;BME280;73701;52.234;21.288;2023-12-29T02:50:54;100060.63;;;2.11;90.39
83718;BME280;73701;52.234;21.288;2023-12-29T02:53:19;100064.00;;;2.16;90.94
83718;BME280;73701;52.234;21.288;2023-12-29T02:55:45;100065.72;;;2.18;90.56
83718;BME280;73701;52.234;21.288;2023-12-29T02:58:10;100066.56;;;2.17;90.85
83718;BME280;73701;52.234;21.288;2023-12-29T03:00:35;100057.22;;;2.12;90.88
83718;BME280;73701;52.234;21.288;2023-12-29T03:03:01;100068.28;;;2.12;91.48
83718;BME280;73701;52.234;21.288;2023-12-29T03:05:26;100067.50;;;2.09;91.13
83718;BME280;73701;52.234;21.288;2023-12-29T03:07:51;100000.44;;;1.59;91.09
83718;BME280;73701;52.234;21.288;2023-12-29T03:10:17;100078.69;;;1.94;90.79
83718;BME280;73701;52.234;21.288;2023-12-29T03:12:42;100072.75;;;1.90;91.45
83718;BME280;73701;52.234;21.288;2023-12-29T03:15:08;100072.75;;;1.90;91.23
83718;BME280;73701;52.234;21.288;2023-12-29T03:17:33;100065.09;;;1.85;92.01
83718;BME280;73701;52.234;21.288;2023-12-29T03:20:01;100008.97;;;1.58;91.06
83718;BME280;73701;52.234;21.288;2023-12-29T03:22:26;100060.78;;;1.92;91.58
83718;BME280;73701;52.234;21.288;2023-12-29T03:24:51;100067.56;;;1.98;91.98
83718;BME280;73701;52.234;21.288;2023-12-29T03:27:17;100065.84;;;2.00;92.12
83718;BME280;73701;52.234;21.288;2023-12-29T03:29:42;100036.91;;;1.90;92.79
83718;BME280;73701;52.234;21.288;2023-12-29T03:32:07;100050.44;;;2.06;93.00
83718;BME280;73701;52.234;21.288;2023-12-29T03:34:33;100056.38;;;2.11;92.86
83718;BME280;73701;52.234;21.288;2023-12-29T03:36:59;100028.34;;;1.89;92.34
83718;BME280;73701;52.234;21.288;2023-12-29T03:39:24;100018.06;;;1.97;92.41
83718;BME280;73701;52.234;21.288;2023-12-29T03:41:49;100051.25;;;2.10;92.68
83718;BME280;73701;52.234;21.288;2023-12-29T03:44:15;100035.09;;;2.03;92.01
83718;BME280;73701;52.234;21.288;2023-12-29T03:46:40;100040.16;;;2.09;92.47
83718;BME280;73701;52.234;21.288;2023-12-29T03:49:06;100001.06;;;1.84;92.24
83718;BME280;73701;52.234;21.288;2023-12-29T03:51:31;100037.59;;;2.09;92.40
83718;BME280;73701;52.234;21.288;2023-12-29T03:53:56;100052.91;;;2.17;91.65
83718;BME280;73701;52.234;21.288;2023-12-29T03:56:23;100033.41;;;2.00;92.24
83718;BME280;73701;52.234;21.288;2023-12-29T03:58:49;100048.59;;;2.19;91.82
83718;BME280;73701;52.234;21.288;2023-12-29T04:01:16;100004.38;;;1.98;92.21
83718;BME280;73701;52.234;21.288;2023-12-29T04:03:43;99849.00;;;1.02;91.60
83718;BME280;73701;52.234;21.288;2023-12-29T04:06:09;100069.13;;;2.17;92.20
83718;BME280;73701;52.234;21.288;2023-12-29T04:08:36;100043.50;;;2.16;92.68
83718;BME280;73701;52.234;21.288;2023-12-29T04:11:02;100020.59;;;2.00;92.19
83718;BME280;73701;52.234;21.288;2023-12-29T04:13:28;99990.81;;;1.88;92.33
83718;BME280;73701;52.234;21.288;2023-12-29T04:15:53;100037.50;;;2.20;91.94
83718;BME280;73701;52.234;21.288;2023-12-29T04:18:20;100030.63;;;2.22;92.63
83718;BME280;73701;52.234;21.288;2023-12-29T04:20:46;100037.50;;;2.20;92.49
83718;BME280;73701;52.234;21.288;2023-12-29T04:23:11;100028.09;;;2.19;92.59
83718;BME280;73701;52.234;21.288;2023-12-29T04:25:37;100027.28;;;2.17;92.61
83718;BME280;73701;52.234;21.288;2023-12-29T04:28:03;100037.53;;;2.18;92.70
83718;BME280;73701;52.234;21.288;2023-12-29T04:30:29;100031.53;;;2.21;92.31
83718;BME280;73701;52.234;21.288;2023-12-29T04:32:54;100030.63;;;2.23;91.95
83718;BME280;73701;52.234;21.288;2023-12-29T04:35:19;100006.88;;;2.04;91.94
83718;BME280;73701;52.234;21.288;2023-12-29T04:37:45;100018.69;;;2.22;92.18
83718;BME280;73701;52.234;21.288;2023-12-29T04:40:14;100021.28;;;2.21;92.22
83718;BME280;73701;52.234;21.288;2023-12-29T04:42:40;99894.72;;;1.46;92.16
83718;BME280;73701;52.234;21.288;2023-12-29T04:45:06;99994.09;;;2.04;92.00
83718;BME280;73701;52.234;21.288;2023-12-29T04:47:32;100012.72;;;2.19;92.78
83718;BME280;73701;52.234;21.288;2023-12-29T04:49:57;100018.69;;;2.22;92.63
83718;BME280;73701;52.234;21.288;2023-12-29T04:52:23;99778.75;;;0.30;92.29
83718;BME280;73701;52.234;21.288;2023-12-29T04:54:49;99995.81;;;1.99;92.13
83718;BME280;73701;52.234;21.288;2023-12-29T04:57:14;99943.09;;;1.75;91.77
83718;BME280;73701;52.234;21.288;2023-12-29T04:59:40;99968.69;;;1.80;92.25
83718;BME280;73701;52.234;21.288;2023-12-29T05:02:05;100023.84;;;2.16;92.96
83718;BME280;73701;52.234;21.288;2023-12-29T05:04:31;99844.69;;;1.08;92.28
83718;BME280;73701;52.234;21.288;2023-12-29T05:06:56;100025.53;;;2.20;92.58
83718;BME280;73701;52.234;21.288;2023-12-29T05:09:22;100041.78;;;2.21;92.00
83718;BME280;73701;52.234;21.288;2023-12-29T05:11:47;99984.81;;;1.91;92.19
83718;BME280;73701;52.234;21.288;2023-12-29T05:14:13;100015.28;;;2.19;92.66
83718;BME280;73701;52.234;21.288;2023-12-29T05:16:38;99996.59;;;2.07;92.79
83718;BME280;73701;52.234;21.288;2023-12-29T05:19:03;100017.00;;;2.21;92.71
83718;BME280;73701;52.234;21.288;2023-12-29T05:21:29;99989.00;;;2.01;93.22
83718;BME280;73701;52.234;21.288;2023-12-29T05:23:54;100015.22;;;2.27;92.46
83718;BME280;73701;52.234;21.288;2023-12-29T05:26:20;100007.50;;;2.31;92.92
83718;BME280;73701;52.234;21.288;2023-12-29T05:28:45;100004.91;;;2.33;92.45
83718;BME280;73701;52.234;21.288;2023-12-29T05:31:10;100006.63;;;2.32;92.64
83718;BME280;73701;52.234;21.288;2023-12-29T05:33:36;100018.56;;;2.35;92.83
83718;BME280;73701;52.234;21.288;2023-12-29T05:36:09;99999.84;;;2.28;93.02
83718;BME280;73701;52.234;21.288;2023-12-29T05:38:35;100002.31;;;2.37;92.42
83718;BME280;73701;52.234;21.288;2023-12-29T05:41:01;99734.13;;;0.78;92.10
83718;BME280;73701;52.234;21.288;2023-12-29T05:43:28;100014.13;;;2.51;92.81
83718;BME280;73701;52.234;21.288;2023-12-29T05:45:53;99876.63;;;1.67;92.32
83718;BME280;73701;52.234;21.288;2023-12-29T05:48:19;100006.41;;;2.55;92.40
83718;BME280;73701;52.234;21.288;2023-12-29T05:50:44;100002.03;;;2.61;92.17
83718;BME280;73701;52.234;21.288;2023-12-29T05:53:09;99995.16;;;2.66;92.40
83718;BME280;73701;52.234;21.288;2023-12-29T05:55:35;100001.94;;;2.71;92.50
83718;BME280;73701;52.234;21.288;2023-12-29T05:58:01;100026.75;;;2.71;92.12
83718;BME280;73701;52.234;21.288;2023-12-29T06:00:26;99951.84;;;2.42;92.09
83718;BME280;73701;52.234;21.288;2023-12-29T06:02:52;99894.94;;;2.13;92.16
83718;BME280;73701;52.234;21.288;2023-12-29T06:05:17;99989.84;;;2.81;91.74
83718;BME280;73701;52.234;21.288;2023-12-29T06:07:42;100006.81;;;2.93;91.92
83718;BME280;73701;52.234;21.288;2023-12-29T06:10:08;99993.97;;;2.94;92.01
83718;BME280;73701;52.234;21.288;2023-12-29T06:12:34;99948.16;;;2.65;91.31
83718;BME280;73701;52.234;21.288;2023-12-29T06:15:00;99977.78;;;2.89;91.77
83718;BME280;73701;52.234;21.288;2023-12-29T06:17:26;99925.06;;;2.67;91.19
83718;BME280;73701;52.234;21.288;2023-12-29T06:19:51;99980.94;;;3.08;91.88
83718;BME280;73701;52.234;21.288;2023-12-29T06:22:16;99986.00;;;3.15;91.36
83718;BME280;73701;52.234;21.288;2023-12-29T06:24:42;99934.94;;;2.94;91.40
83718;BME280;73701;52.234;21.288;2023-12-29T06:27:08;99945.06;;;3.05;91.89
83718;BME280;73701;52.234;21.288;2023-12-29T06:29:34;99967.88;;;3.27;90.99
83718;BME280;73701;52.234;21.288;2023-12-29T06:32:00;99980.59;;;3.33;90.34
83718;BME280;73701;52.234;21.288;2023-12-29T06:34:25;99976.22;;;3.41;90.52
83718;BME280;73701;52.234;21.288;2023-12-29T06:36:51;99979.56;;;3.47;90.16
83718;BME280;73701;52.234;21.288;2023-12-29T06:39:16;99970.97;;;3.48;90.45
83718;BME280;73701;52.234;21.288;2023-12-29T06:41:41;99964.16;;;3.47;90.41
83718;BME280;73701;52.234;21.288;2023-12-29T06:44:07;99968.34;;;3.54;90.04
83718;BME280;73701;52.234;21.288;2023-12-29T06:46:32;99973.47;;;3.54;90.13
83718;BME280;73701;52.234;21.288;2023-12-29T06:48:57;99937.00;;;3.30;89.94
83718;BME280;73701;52.234;21.288;2023-12-29T06:51:23;99913.97;;;3.25;90.13
83718;BME280;73701;52.234;21.288;2023-12-29T06:53:49;99935.09;;;3.43;90.01
83718;BME280;73701;52.234;21.288;2023-12-29T06:56:15;99941.16;;;3.39;89.67
83718;BME280;73701;52.234;21.288;2023-12-29T06:58:41;99940.25;;;3.43;89.73
83718;BME280;73701;52.234;21.288;2023-12-29T07:01:07;99958.88;;;3.56;90.01
83718;BME280;73701;52.234;21.288;2023-12-29T07:03:32;99910.53;;;3.28;90.04
83718;BME280;73701;52.234;21.288;2023-12-29T07:06:00;99830.22;;;2.62;89.74
83718;BME280;73701;52.234;21.288;2023-12-29T07:08:26;99908.00;;;3.26;90.02
83718;BME280;73701;52.234;21.288;2023-12-29T07:10:51;99959.72;;;3.55;90.11
83718;BME280;73701;52.234;21.288;2023-12-29T07:13:17;99957.91;;;3.63;90.00
83718;BME280;73701;52.234;21.288;2023-12-29T07:15:42;99957.06;;;3.62;90.25
83718;BME280;73701;52.234;21.288;2023-12-29T07:18:07;99968.25;;;3.58;90.21
83718;BME280;73701;52.234;21.288;2023-12-29T07:20:33;99958.75;;;3.63;90.08
83718;BME280;73701;52.234;21.288;2023-12-29T07:22:59;99802.63;;;2.81;89.56
83718;BME280;73701;52.234;21.288;2023-12-29T07:25:25;99953.59;;;3.65;90.17
83718;BME280;73701;52.234;21.288;2023-12-29T07:27:50;99946.66;;;3.70;89.99
83718;BME280;73701;52.234;21.288;2023-12-29T07:30:17;99953.59;;;3.65;90.62
83718;BME280;73701;52.234;21.288;2023-12-29T07:32:43;99944.13;;;3.67;90.33
83718;BME280;73701;52.234;21.288;2023-12-29T07:35:08;99938.88;;;3.75;89.91
83718;BME280;73701;52.234;21.288;2023-12-29T07:37:34;99905.88;;;3.50;90.43
83718;BME280;73701;52.234;21.288;2023-12-29T07:39:59;99925.41;;;3.62;90.20
83718;BME280;73701;52.234;21.288;2023-12-29T07:42:24;99943.06;;;3.82;90.55
83718;BME280;73701;52.234;21.288;2023-12-29T07:44:50;99937.75;;;3.90;89.94
83718;BME280;73701;52.234;21.288;2023-12-29T07:47:16;99936.88;;;3.92;90.22
83718;BME280;73701;52.234;21.288;2023-12-29T07:49:42;99942.72;;;4.01;89.87
83718;BME280;73701;52.234;21.288;2023-12-29T07:52:07;99938.41;;;4.01;90.16
83718;BME280;73701;52.234;21.288;2023-12-29T07:54:33;99807.88;;;3.26;89.60
83718;BME280;73701;52.234;21.288;2023-12-29T07:56:59;99935.63;;;4.13;89.70
83718;BME280;73701;52.234;21.288;2023-12-29T07:59:24;99939.88;;;4.14;89.90
83718;BME280;73701;52.234;21.288;2023-12-29T08:01:50;99906.63;;;4.07;89.96
83718;BME280;73701;52.234;21.288;2023-12-29T08:04:15;99925.09;;;4.26;89.38
83718;BME280;73701;52.234;21.288;2023-12-29T08:06:41;99919.09;;;4.27;89.82
83718;BME280;73701;52.234;21.288;2023-12-29T08:09:06;99922.44;;;4.32;89.36
83718;BME280;73701;52.234;21.288;2023-12-29T08:11:32;99918.09;;;4.34;89.26
83718;BME280;73701;52.234;21.288;2023-12-29T08:13:58;99890.97;;;4.19;88.89
83718;BME280;73701;52.234;21.288;2023-12-29T08:16:23;99878.94;;;4.21;89.22
83718;BME280;73701;52.234;21.288;2023-12-29T08:18:49;99911.13;;;4.41;88.88
83718;BME280;73701;52.234;21.288;2023-12-29T08:21:21;99890.81;;;4.27;89.35
83718;BME280;73701;52.234;21.288;2023-12-29T08:23:48;99882.19;;;4.29;88.79
83718;BME280;73701;52.234;21.288;2023-12-29T08:26:13;99904.97;;;4.48;88.66
83718;BME280;73701;52.234;21.288;2023-12-29T08:28:39;99874.56;;;4.26;88.55
83718;BME280;73701;52.234;21.288;2023-12-29T08:31:04;99903.38;;;4.42;89.06
83718;BME280;73701;52.234;21.288;2023-12-29T08:33:30;99880.31;;;4.38;88.21
83718;BME280;73701;52.234;21.288;2023-12-29T08:35:56;99926.19;;;4.59;88.23
83718;BME280;73701;52.234;21.288;2023-12-29T08:38:28;99901.41;;;4.55;88.14
83718;BME280;73701;52.234;21.288;2023-12-29T08:40:53;99909.84;;;4.62;88.29
83718;BME280;73701;52.234;21.288;2023-12-29T08:43:19;99903.78;;;4.63;88.07
83718;BME280;73701;52.234;21.288;2023-12-29T08:45:47;99900.34;;;4.64;88.05
83718;BME280;73701;52.234;21.288;2023-12-29T08:48:13;99902.75;;;4.73;87.91
83718;BME280;73701;52.234;21.288;2023-12-29T08:50:38;99828.94;;;4.36;87.67
83718;BME280;73701;52.234;21.288;2023-12-29T08:53:03;99818.66;;;4.35;87.23
83718;BME280;73701;52.234;21.288;2023-12-29T08:55:29;99869.31;;;4.72;86.92
83718;BME280;73701;52.234;21.288;2023-12-29T08:57:56;99882.84;;;4.80;86.81
83718;BME280;73701;52.234;21.288;2023-12-29T09:00:21;99854.09;;;4.62;86.71
83718;BME280;73701;52.234;21.288;2023-12-29T09:02:47;99906.13;;;5.13;85.63
83718;BME280;73701;52.234;21.288;2023-12-29T09:05:12;99858.72;;;4.86;86.46
83718;BME280;73701;52.234;21.288;2023-12-29T09:07:37;99754.63;;;4.24;85.90
83718;BME280;73701;52.234;21.288;2023-12-29T09:10:03;99894.94;;;5.15;86.05
83718;BME280;73701;52.234;21.288;2023-12-29T09:12:33;99918.72;;;5.25;85.75
83718;BME280;73701;52.234;21.288;2023-12-29T09:14:58;99895.38;;;5.33;85.70
83718;BME280;73701;52.234;21.288;2023-12-29T09:17:24;99889.34;;;5.34;85.60
83718;BME280;73701;52.234;21.288;2023-12-29T09:19:49;99899.28;;;5.49;85.05
83718;BME280;73701;52.234;21.288;2023-12-29T09:22:14;99899.09;;;5.56;84.74
83718;BME280;73701;52.234;21.288;2023-12-29T09:24:41;99898.16;;;5.60;84.86
83718;BME280;73701;52.234;21.288;2023-12-29T09:27:06;99834.47;;;5.32;84.18
83718;BME280;73701;52.234;21.288;2023-12-29T09:29:31;99883.22;;;5.73;84.18
83718;BME280;73701;52.234;21.288;2023-12-29T09:31:57;99867.13;;;5.64;84.33
83718;BME280;73701;52.234;21.288;2023-12-29T09:34:22;99882.97;;;5.83;83.38
83718;BME280;73701;52.234;21.288;2023-12-29T09:36:47;99872.66;;;5.83;83.12
83718;BME280;73701;52.234;21.288;2023-12-29T09:39:13;99809.19;;;5.46;83.74
83718;BME280;73701;52.234;21.288;2023-12-29T09:41:42;99871.69;;;5.87;83.37
83718;BME280;73701;52.234;21.288;2023-12-29T09:44:14;99681.44;;;4.75;83.89
83718;BME280;73701;52.234;21.288;2023-12-29T09:46:41;99875.09;;;5.88;83.16
83718;BME280;73701;52.234;21.288;2023-12-29T09:49:08;99843.28;;;5.56;82.89
83718;BME280;73701;52.234;21.288;2023-12-29T09:51:33;99873.88;;;6.03;83.00
83718;BME280;73701;52.234;21.288;2023-12-29T09:53:59;99873.72;;;6.09;82.65
83718;BME280;73701;52.234;21.288;2023-12-29T09:56:25;99861.66;;;6.10;81.82
83718;BME280;73701;52.234;21.288;2023-12-29T09:58:51;99850.47;;;6.11;82.24
83718;BME280;73701;52.234;21.288;2023-12-29T10:01:18;99888.41;;;6.37;82.36
83718;BME280;73701;52.234;21.288;2023-12-29T10:03:47;99866.84;;;6.39;82.48
83718;BME280;73701;52.234;21.288;2023-12-29T10:06:24;99837.88;;;6.30;81.20
83718;BME280;73701;52.234;21.288;2023-12-29T10:08:50;99834.38;;;6.32;80.96
83718;BME280;73701;52.234;21.288;2023-12-29T10:11:18;99855.94;;;6.60;81.66
83718;BME280;73701;52.234;21.288;2023-12-29T10:13:45;99850.56;;;6.67;80.71
83718;BME280;73701;52.234;21.288;2023-12-29T10:18:46;99819.09;;;6.54;80.34
83718;BME280;73701;52.234;21.288;2023-12-29T10:23:57;99864.16;;;7.01;80.18
83718;BME280;73701;52.234;21.288;2023-12-29T10:26:23;99864.56;;;7.15;79.76
83718;BME280;73701;52.234;21.288;2023-12-29T10:28:49;99843.38;;;7.04;79.57
83718;BME280;73701;52.234;21.288;2023-12-29T10:31:15;99835.50;;;7.08;79.11
83718;BME280;73701;52.234;21.288;2023-12-29T10:33:43;99859.81;;;7.30;79.43
83718;BME280;73701;52.234;21.288;2023-12-29T10:36:09;99840.69;;;7.34;78.17
83718;BME280;73701;52.234;21.288;2023-12-29T10:38:39;99651.66;;;6.18;78.23
83718;BME280;73701;52.234;21.288;2023-12-29T10:41:16;99750.88;;;6.90;78.70
83718;BME280;73701;52.234;21.288;2023-12-29T10:43:44;99847.75;;;7.55;79.11
83718;BME280;73701;52.234;21.288;2023-12-29T10:46:11;99835.63;;;7.57;77.71
83718;BME280;73701;52.234;21.288;2023-12-29T10:48:39;99844.63;;;7.71;77.65
83718;BME280;73701;52.234;21.288;2023-12-29T10:51:05;99815.56;;;7.64;77.62
83718;BME280;73701;52.234;21.288;2023-12-29T10:53:34;99844.16;;;7.85;77.15
83718;BME280;73701;52.234;21.288;2023-12-29T10:56:00;99838.72;;;7.92;76.78
83718;BME280;73701;52.234;21.288;2023-12-29T10:58:26;99813.97;;;7.85;76.79
83718;BME280;73701;52.234;21.288;2023-12-29T11:00:55;99832.97;;;8.08;75.96
83718;BME280;73701;52.234;21.288;2023-12-29T11:03:21;99825.56;;;7.99;76.15
83718;BME280;73701;52.234;21.288;2023-12-29T11:05:47;99669.16;;;7.14;76.12
83718;BME280;73701;52.234;21.288;2023-12-29T11:08:20;99823.25;;;8.15;76.19
83718;BME280;73701;52.234;21.288;2023-12-29T11:10:48;99789.34;;;7.99;74.92
83718;BME280;73701;52.234;21.288;2023-12-29T11:13:14;99831.16;;;8.35;75.88
83718;BME280;73701;52.234;21.288;2023-12-29T11:15:44;99810.44;;;8.35;75.44
83718;BME280;73701;52.234;21.288;2023-12-29T11:18:16;99826.25;;;8.51;74.20
83718;BME280;73701;52.234;21.288;2023-12-29T11:20:43;99825.06;;;8.60;74.33
83718;BME280;73701;52.234;21.288;2023-12-29T11:23:10;99820.59;;;8.63;73.55
83718;BME280;73701;52.234;21.288;2023-12-29T11:25:36;99817.97;;;8.65;73.87
83718;BME280;73701;52.234;21.288;2023-12-29T11:28:03;99780.56;;;8.50;73.73
83718;BME280;73701;52.234;21.288;2023-12-29T11:30:29;99800.53;;;8.69;73.02
83718;BME280;73701;52.234;21.288;2023-12-29T11:33:02;99617.22;;;7.68;72.58
83718;BME280;73701;52.234;21.288;2023-12-29T11:35:37;99816.16;;;8.89;72.66
83718;BME280;73701;52.234;21.288;2023-12-29T11:43:41;99802.75;;;9.00;72.45
83718;BME280;73701;52.234;21.288;2023-12-29T11:46:07;99789.66;;;9.03;72.54
83718;BME280;73701;52.234;21.288;2023-12-29T11:48:56;99775.94;;;9.01;71.35
83718;BME280;73701;52.234;21.288;2023-12-29T11:51:32;99779.38;;;9.02;71.26
83718;BME280;73701;52.234;21.288;2023-12-29T11:53:59;99681.50;;;8.23;71.64
83718;BME280;73701;52.234;21.288;2023-12-29T11:56:37;99577.03;;;7.83;71.02
83718;BME280;73701;52.234;21.288;2023-12-29T11:59:18;99776.56;;;9.08;71.48
83718;BME280;73701;52.234;21.288;2023-12-29T12:01:47;99704.94;;;8.64;71.39
83718;BME280;73701;52.234;21.288;2023-12-29T12:07:07;99753.16;;;9.09;71.61
83718;BME280;73701;52.234;21.288;2023-12-29T12:09:33;99710.13;;;8.85;71.23
83718;BME280;73701;52.234;21.288;2023-12-29T12:12:01;99719.31;;;8.92;71.13
83718;BME280;73701;52.234;21.288;2023-12-29T12:14:53;99706.75;;;9.03;70.45
83718;BME280;73701;52.234;21.288;2023-12-29T12:17:29;99744.72;;;9.25;70.71
83718;BME280;73701;52.234;21.288;2023-12-29T12:19:59;99711.63;;;9.11;70.74
83718;BME280;73701;52.234;21.288;2023-12-29T12:22:24;99704.91;;;9.07;70.47
83718;BME280;73701;52.234;21.288;2023-12-29T12:24:56;99761.66;;;9.33;70.29
83718;BME280;73701;52.234;21.288;2023-12-29T12:27:22;99747.31;;;9.25;70.65
83718;BME280;73701;52.234;21.288;2023-12-29T12:29:52;99747.78;;;9.14;70.35
83718;BME280;73701;52.234;21.288;2023-12-29T12:32:21;99675.56;;;8.65;70.46
83718;BME280;73701;52.234;21.288;2023-12-29T12:34:47;99725.69;;;9.05;70.39
83718;BME280;73701;52.234;21.288;2023-12-29T12:37:12;99766.31;;;9.25;71.06
83718;BME280;73701;52.234;21.288;2023-12-29T12:39:41;99750.44;;;9.12;72.03
83718;BME280;73701;52.234;21.288;2023-12-29T12:42:06;99782.38;;;9.13;72.01
83718;BME280;73701;52.234;21.288;2023-12-29T12:44:31;99730.28;;;8.98;71.26
83718;BME280;73701;52.234;21.288;2023-12-29T12:46:59;99764.03;;;9.18;71.53
83718;BME280;73701;52.234;21.288;2023-12-29T12:49:28;99746.34;;;9.07;71.60
83718;BME280;73701;52.234;21.288;2023-12-29T12:51:54;99749.50;;;9.13;71.14
83718;BME280;73701;52.234;21.288;2023-12-29T12:54:20;99566.53;;;8.08;71.42
83718;BME280;73701;52.234;21.288;2023-12-29T12:56:46;99760.53;;;9.19;70.92
83718;BME280;73701;52.234;21.288;2023-12-29T12:59:13;99751.13;;;9.16;71.27
83718;BME280;73701;52.234;21.288;2023-12-29T13:01:39;99728.97;;;9.09;71.12
83718;BME280;73701;52.234;21.288;2023-12-29T13:04:05;99740.41;;;9.25;70.88
83718;BME280;73701;52.234;21.288;2023-12-29T13:06:32;99742.91;;;9.27;71.24
83718;BME280;73701;52.234;21.288;2023-12-29T13:09:00;99767.41;;;9.20;70.96